Midway City, California
Current Conditions -  °F | °C
As of 11:58 PM on Sunday 25 Jan 2015 (Local Time) from KSLI Reporting Station
Broken Clouds Broken Clouds  
Wind Chill: 62°   Ceiling: 21000
Heat Index: 62°   Visibility: 10mi
Dew Point: 38°   Wind: 6mph
Humidity: 41%   Direction: 50°NE
Pressure: 30.01"   Gusts: NA
Location:  33.74°N, 117.99°W
Report Text: KSLI 260758Z AUTO 05005KT 10SM BKN210 16/03 A3001 RMK AO2 SLP165 T01640032 402790113
Loading
Personal Weather Stations






























Interactive Weather Map New forecast layout! Learn more

10-Day Weather Forecast

Advertisements
Track Severe Weather on mobile